createdAt,value
2023-03-29T00:00:43.872Z,0.90
2023-03-29T00:03:15.027Z,0.90
2023-03-29T00:05:45.776Z,1.00
2023-03-29T00:08:18.586Z,0.80
2023-03-29T00:10:52.026Z,2.10
2023-03-29T00:13:22.995Z,1.10
2023-03-29T00:15:53.938Z,0.80
2023-03-29T00:18:24.836Z,0.90
2023-03-29T00:20:59.154Z,0.70
2023-03-29T00:23:30.165Z,1.20
2023-03-29T00:26:00.765Z,1.10
2023-03-29T00:28:31.754Z,0.90
2023-03-29T00:31:10.361Z,1.10
2023-03-29T00:33:42.439Z,0.90
2023-03-29T00:36:14.652Z,1.00
2023-03-29T00:38:45.420Z,1.80
2023-03-29T00:41:16.144Z,0.80
2023-03-29T00:43:58.387Z,0.90
2023-03-29T00:46:31.382Z,0.60
2023-03-29T00:49:08.856Z,1.40
2023-03-29T00:51:42.656Z,1.50
2023-03-29T00:56:49.989Z,0.90
2023-03-29T00:59:23.259Z,1.40
2023-03-29T01:01:58.769Z,1.30
2023-03-29T01:04:34.154Z,1.60
2023-03-29T01:07:08.642Z,0.80
2023-03-29T01:09:44.870Z,0.90
2023-03-29T01:12:20.925Z,1.40
2023-03-29T01:14:58.462Z,0.80
2023-03-29T01:17:31.787Z,1.00
2023-03-29T01:20:10.829Z,1.00
2023-03-29T01:22:51.412Z,1.00
2023-03-29T01:25:27.376Z,1.70
2023-03-29T01:28:03.378Z,0.80
2023-03-29T01:30:40.022Z,0.90
2023-03-29T01:33:21.363Z,0.70
2023-03-29T01:35:58.494Z,1.00
2023-03-29T01:38:35.761Z,1.20
2023-03-29T01:41:07.956Z,0.70
2023-03-29T01:43:46.081Z,0.90
2023-03-29T01:46:27.391Z,1.30
2023-03-29T01:49:03.831Z,1.10
2023-03-29T01:51:38.671Z,0.90
2023-03-29T01:54:14.979Z,1.50
2023-03-29T01:56:49.135Z,1.00
2023-03-29T01:59:23.390Z,1.20
2023-03-29T02:02:00.085Z,1.10
2023-03-29T02:04:34.717Z,1.60
2023-03-29T02:07:08.755Z,1.10
2023-03-29T02:09:42.100Z,0.90
2023-03-29T02:12:14.754Z,1.60
2023-03-29T02:14:45.493Z,1.00
2023-03-29T02:17:21.627Z,1.10
2023-03-29T02:19:55.841Z,2.50
2023-03-29T02:22:32.525Z,1.10
2023-03-29T02:25:05.035Z,0.80
2023-03-29T02:27:37.933Z,0.60
2023-03-29T02:30:11.240Z,1.20
2023-03-29T02:32:50.354Z,1.50
2023-03-29T02:35:29.023Z,1.00
2023-03-29T02:38:01.476Z,0.80
2023-03-29T02:40:34.430Z,1.30
2023-03-29T02:43:07.984Z,0.90
2023-03-29T02:45:40.623Z,1.00
2023-03-29T02:48:16.308Z,1.90
2023-03-29T02:50:52.033Z,1.00
2023-03-29T02:53:28.242Z,2.10
2023-03-29T02:56:02.271Z,1.00
2023-03-29T02:58:33.463Z,1.00
2023-03-29T03:01:06.873Z,1.90
2023-03-29T03:03:37.679Z,1.20
2023-03-29T03:06:09.128Z,1.10
2023-03-29T03:08:40.189Z,1.00
2023-03-29T03:11:10.927Z,1.00
2023-03-29T03:13:41.563Z,1.40
2023-03-29T03:16:13.252Z,2.20
2023-03-29T03:18:46.037Z,1.20
2023-03-29T03:21:19.047Z,0.80
2023-03-29T03:23:50.074Z,0.80
2023-03-29T03:26:20.936Z,2.80
2023-03-29T03:28:51.614Z,1.20
2023-03-29T03:31:22.478Z,1.00
2023-03-29T03:33:53.508Z,0.90
2023-03-29T03:36:26.126Z,0.90
2023-03-29T03:38:57.267Z,1.50
2023-03-29T03:41:28.576Z,1.40
2023-03-29T03:43:59.197Z,1.50
2023-03-29T03:46:29.945Z,1.20
2023-03-29T03:49:01.247Z,1.40
2023-03-29T03:51:32.160Z,1.30
2023-03-29T03:54:02.885Z,1.60
2023-03-29T03:56:34.277Z,4.10
2023-03-29T03:59:05.633Z,2.30
2023-03-29T04:01:37.881Z,3.60
2023-03-29T04:04:09.349Z,2.70
2023-03-29T04:06:44.257Z,2.20
2023-03-29T04:09:14.945Z,3.10
2023-03-29T04:11:45.634Z,3.60
2023-03-29T04:14:16.827Z,2.00
2023-03-29T04:16:47.635Z,2.30
2023-03-29T04:19:18.873Z,2.60
2023-03-29T04:21:51.285Z,3.30
2023-03-29T04:24:21.915Z,3.70
2023-03-29T04:26:54.022Z,1.80
2023-03-29T04:29:24.645Z,6.80
2023-03-29T04:31:56.510Z,74.30
2023-03-29T04:34:27.227Z,27.00
2023-03-29T04:36:58.922Z,31.60
2023-03-29T04:39:34.140Z,19.40
2023-03-29T04:42:06.048Z,20.40
2023-03-29T04:44:37.032Z,21.60
2023-03-29T04:47:07.846Z,17.80
2023-03-29T04:49:38.568Z,19.80
2023-03-29T04:52:10.027Z,20.10
2023-03-29T04:54:40.720Z,17.20
2023-03-29T04:57:11.674Z,18.90
2023-03-29T04:59:42.647Z,22.70
2023-03-29T05:02:13.702Z,20.80
2023-03-29T05:04:44.478Z,18.40
2023-03-29T05:07:15.734Z,19.20
2023-03-29T05:09:46.416Z,18.80
2023-03-29T05:12:17.384Z,15.60
2023-03-29T05:14:47.986Z,17.40
2023-03-29T05:17:18.732Z,18.40
2023-03-29T05:19:49.371Z,16.90
2023-03-29T05:22:20.324Z,16.30
2023-03-29T05:24:51.581Z,13.50
2023-03-29T05:27:22.970Z,16.30
2023-03-29T05:29:53.933Z,13.10
2023-03-29T05:32:25.088Z,11.20
2023-03-29T05:34:56.161Z,13.50
2023-03-29T05:37:26.895Z,11.90
2023-03-29T05:40:05.862Z,15.20
2023-03-29T05:42:39.519Z,14.90
2023-03-29T05:45:12.315Z,14.80
2023-03-29T05:47:43.050Z,12.50
2023-03-29T05:50:14.303Z,12.90
2023-03-29T05:52:45.005Z,9.80
2023-03-29T05:55:16.165Z,13.40
2023-03-29T05:57:46.905Z,9.10
2023-03-29T06:00:24.095Z,13.20
2023-03-29T06:03:00.996Z,12.30
2023-03-29T06:05:37.240Z,11.60
2023-03-29T06:08:09.117Z,9.60
2023-03-29T06:10:43.200Z,9.70
2023-03-29T06:13:14.103Z,10.10
2023-03-29T06:15:47.308Z,9.30
2023-03-29T06:18:18.244Z,10.40
2023-03-29T06:20:52.197Z,9.80
2023-03-29T06:23:24.426Z,10.10
2023-03-29T06:25:55.353Z,6.30
2023-03-29T06:28:26.267Z,9.50
2023-03-29T06:31:02.861Z,9.90
2023-03-29T06:33:34.303Z,9.90
2023-03-29T06:36:05.886Z,9.80
2023-03-29T06:38:37.309Z,12.10
2023-03-29T06:41:11.215Z,7.90
2023-03-29T06:43:42.169Z,10.20
2023-03-29T06:46:13.488Z,8.30
2023-03-29T06:48:45.122Z,5.80
2023-03-29T06:51:15.796Z,7.40
2023-03-29T06:53:46.456Z,7.10
2023-03-29T06:56:17.743Z,8.60
2023-03-29T06:58:48.695Z,8.30
2023-03-29T07:01:19.505Z,6.00
2023-03-29T07:03:50.222Z,5.60
2023-03-29T07:06:21.982Z,8.50
2023-03-29T07:08:53.746Z,6.70
2023-03-29T07:11:24.481Z,7.70
2023-03-29T07:13:55.564Z,6.20
2023-03-29T07:16:27.383Z,7.00
2023-03-29T07:18:58.327Z,6.00
2023-03-29T07:21:29.000Z,6.80
2023-03-29T07:23:59.907Z,5.90
2023-03-29T07:26:30.649Z,9.00
2023-03-29T07:29:01.339Z,6.50
2023-03-29T07:31:33.242Z,7.50
2023-03-29T07:34:07.261Z,7.40
2023-03-29T07:36:38.614Z,5.80
2023-03-29T07:39:09.961Z,5.90
2023-03-29T07:41:40.704Z,6.00
2023-03-29T07:44:11.329Z,4.50
2023-03-29T07:46:43.426Z,6.90
2023-03-29T07:49:14.140Z,5.90
2023-03-29T07:51:45.083Z,5.60
2023-03-29T07:54:16.022Z,5.80
2023-03-29T07:56:47.782Z,4.50
2023-03-29T07:59:19.048Z,6.30
2023-03-29T08:01:50.491Z,5.30
2023-03-29T08:04:21.588Z,4.70
2023-03-29T08:06:52.484Z,5.70
2023-03-29T08:09:23.404Z,4.20
2023-03-29T08:11:54.240Z,6.30
2023-03-29T08:14:25.415Z,5.90
2023-03-29T08:16:56.400Z,5.90
2023-03-29T08:19:27.406Z,5.60
2023-03-29T08:21:58.154Z,5.30
2023-03-29T08:24:29.058Z,5.80
2023-03-29T08:26:59.953Z,7.30
2023-03-29T08:29:31.297Z,4.70
2023-03-29T08:32:01.905Z,5.20
2023-03-29T08:34:32.773Z,5.50
2023-03-29T08:37:04.871Z,5.70
2023-03-29T08:39:35.659Z,4.30
2023-03-29T08:42:21.739Z,6.00
2023-03-29T08:47:35.739Z,6.30
2023-03-29T08:50:07.774Z,4.30
2023-03-29T08:52:41.568Z,4.00
2023-03-29T08:55:28.496Z,5.50
2023-03-29T08:58:01.178Z,3.00
2023-03-29T09:00:40.224Z,4.20
2023-03-29T09:03:22.333Z,4.50
2023-03-29T09:05:57.739Z,2.70
2023-03-29T09:08:28.785Z,3.50
2023-03-29T09:11:15.732Z,3.60
2023-03-29T09:13:57.777Z,2.90
2023-03-29T09:16:34.846Z,5.00
2023-03-29T09:19:13.472Z,3.30
2023-03-29T09:21:51.697Z,3.60
2023-03-29T09:24:39.532Z,4.20
2023-03-29T09:27:16.045Z,5.10
2023-03-29T09:30:06.223Z,3.30
2023-03-29T09:32:45.683Z,4.00
2023-03-29T09:35:22.492Z,3.30
2023-03-29T09:37:55.946Z,2.70
2023-03-29T09:40:31.147Z,3.80
2023-03-29T09:43:05.342Z,3.30
2023-03-29T09:45:39.578Z,4.20
2023-03-29T09:48:15.669Z,3.40
2023-03-29T09:50:48.659Z,3.30
2023-03-29T09:53:21.864Z,3.40
2023-03-29T09:55:55.443Z,4.90
2023-03-29T09:58:31.028Z,3.70
2023-03-29T10:01:03.095Z,3.50
2023-03-29T10:03:35.073Z,3.40
2023-03-29T10:06:08.646Z,3.00
2023-03-29T10:08:42.826Z,3.40
2023-03-29T10:11:22.177Z,3.70
2023-03-29T10:13:57.274Z,2.70
2023-03-29T10:16:32.178Z,4.70
2023-03-29T10:19:19.338Z,3.20
2023-03-29T10:21:52.931Z,3.20
2023-03-29T10:24:26.964Z,3.20
2023-03-29T10:29:36.465Z,2.70
2023-03-29T10:32:17.586Z,4.30
2023-03-29T10:34:50.456Z,5.30
2023-03-29T10:37:23.587Z,7.10
2023-03-29T10:39:56.986Z,6.40
2023-03-29T10:42:29.343Z,6.10
2023-03-29T10:45:01.769Z,9.90
2023-03-29T10:47:35.444Z,6.30
2023-03-29T10:50:12.892Z,4.20
2023-03-29T10:52:43.836Z,4.20
2023-03-29T10:55:17.177Z,5.50
2023-03-29T10:57:57.078Z,5.10
2023-03-29T11:00:33.422Z,3.10
2023-03-29T11:03:21.933Z,4.20
2023-03-29T11:06:00.231Z,4.50
2023-03-29T11:08:41.093Z,4.60
2023-03-29T11:11:24.623Z,7.30
2023-03-29T11:14:01.721Z,3.90
2023-03-29T11:16:40.459Z,5.40
2023-03-29T11:19:44.829Z,5.80
2023-03-29T11:22:24.005Z,4.50
2023-03-29T11:25:11.419Z,4.90
2023-03-29T11:27:51.144Z,4.50
2023-03-29T11:30:29.133Z,3.90
2023-03-29T11:33:13.942Z,4.20
2023-03-29T11:36:00.184Z,3.10
2023-03-29T11:38:37.201Z,4.20
2023-03-29T11:41:17.785Z,4.20
2023-03-29T11:43:53.263Z,4.30
2023-03-29T11:46:31.546Z,5.10
2023-03-29T11:49:07.635Z,4.50
2023-03-29T11:51:42.875Z,2.70
2023-03-29T11:54:20.732Z,4.50
2023-03-29T11:56:57.352Z,6.60
2023-03-29T11:59:33.850Z,3.90
2023-03-29T12:02:13.676Z,3.20
2023-03-29T12:04:50.102Z,3.00
2023-03-29T12:07:25.350Z,5.60
2023-03-29T12:10:00.070Z,2.60
2023-03-29T12:12:40.425Z,4.30
2023-03-29T12:15:20.383Z,3.00
2023-03-29T12:17:56.320Z,4.20
2023-03-29T12:20:31.661Z,3.40
2023-03-29T12:23:02.991Z,4.20
2023-03-29T12:25:39.459Z,1.70
2023-03-29T12:28:24.341Z,3.20
2023-03-29T12:31:03.961Z,2.30
2023-03-29T12:34:10.751Z,2.70
2023-03-29T12:37:00.570Z,3.30
2023-03-29T12:39:33.458Z,3.40
2023-03-29T12:42:18.131Z,3.40
2023-03-29T12:44:58.547Z,3.10
2023-03-29T12:47:33.788Z,2.00
2023-03-29T12:50:05.420Z,3.10
2023-03-29T12:52:37.839Z,1.90
2023-03-29T12:55:23.228Z,2.60
2023-03-29T12:58:05.654Z,2.20
2023-03-29T13:00:46.301Z,2.10
2023-03-29T13:03:36.157Z,2.20
2023-03-29T13:06:10.462Z,2.80
2023-03-29T13:08:43.239Z,2.90
2023-03-29T13:11:28.511Z,2.30
2023-03-29T13:14:01.635Z,3.20
2023-03-29T13:16:37.080Z,2.60
2023-03-29T13:19:29.909Z,2.30
2023-03-29T13:22:15.819Z,1.40
2023-03-29T13:25:10.216Z,3.50
2023-03-29T13:27:51.330Z,2.40
2023-03-29T13:30:31.411Z,4.70
2023-03-29T13:35:49.419Z,10.90
2023-03-29T13:38:26.022Z,12.80
2023-03-29T13:41:05.101Z,9.90
2023-03-29T13:43:51.131Z,13.00
2023-03-29T13:46:36.500Z,10.10
2023-03-29T13:49:19.891Z,12.80
2023-03-29T13:52:17.993Z,10.80
2023-03-29T13:54:58.486Z,9.00
2023-03-29T13:57:37.391Z,14.10
2023-03-29T14:00:18.155Z,11.80
2023-03-29T14:02:51.893Z,9.00
2023-03-29T14:05:29.801Z,11.90
2023-03-29T14:08:08.995Z,8.20
2023-03-29T14:10:42.898Z,8.30
2023-03-29T14:13:16.561Z,8.40
2023-03-29T14:15:50.870Z,6.50
2023-03-29T14:18:25.512Z,4.40
2023-03-29T14:20:58.013Z,8.80
2023-03-29T14:23:31.882Z,12.10
2023-03-29T14:26:10.742Z,4.60
2023-03-29T14:28:47.518Z,6.70
2023-03-29T14:31:23.349Z,10.30
2023-03-29T14:33:57.564Z,8.00
2023-03-29T14:36:30.054Z,5.70
2023-03-29T14:39:04.219Z,8.40
2023-03-29T14:44:06.866Z,4.60
2023-03-29T14:46:38.875Z,7.80
2023-03-29T14:49:11.393Z,4.10
2023-03-29T14:51:42.596Z,4.30
2023-03-29T14:54:20.900Z,3.80
2023-03-29T14:56:53.141Z,5.30
2023-03-29T14:59:30.131Z,3.20
2023-03-29T15:02:01.822Z,7.70
2023-03-29T15:04:37.543Z,4.30
2023-03-29T15:07:09.435Z,4.80
2023-03-29T15:09:40.919Z,3.50
2023-03-29T15:12:17.751Z,5.20
2023-03-29T15:14:49.978Z,3.20
2023-03-29T15:17:49.523Z,3.20
2023-03-29T15:20:26.216Z,6.30
2023-03-29T15:23:00.279Z,3.60
2023-03-29T15:25:36.472Z,5.60
2023-03-29T15:28:08.044Z,4.50
2023-03-29T15:30:49.434Z,3.80
2023-03-29T15:33:26.159Z,4.50
2023-03-29T15:35:58.532Z,4.70
2023-03-29T15:38:40.462Z,5.70
2023-03-29T15:41:15.788Z,3.30
2023-03-29T15:43:47.494Z,3.40
2023-03-29T15:46:18.664Z,5.70
2023-03-29T15:48:49.588Z,3.60
2023-03-29T15:51:20.716Z,3.50
2023-03-29T15:53:51.656Z,3.30
2023-03-29T15:56:24.100Z,2.90
2023-03-29T15:58:55.095Z,3.50
2023-03-29T16:01:35.045Z,2.90
2023-03-29T16:04:07.438Z,2.50
2023-03-29T16:06:38.677Z,3.30
2023-03-29T16:09:12.194Z,3.80
2023-03-29T16:14:23.189Z,3.00
2023-03-29T16:16:55.585Z,6.50
2023-03-29T16:19:27.591Z,4.50
2023-03-29T16:21:59.586Z,2.30
2023-03-29T16:24:33.042Z,2.50
2023-03-29T16:27:07.420Z,3.30
2023-03-29T16:29:38.334Z,2.00
2023-03-29T16:32:11.401Z,3.00
2023-03-29T16:34:43.323Z,2.00
2023-03-29T16:37:14.459Z,2.70
2023-03-29T16:39:46.402Z,2.40
2023-03-29T16:42:17.742Z,3.20
2023-03-29T16:44:48.506Z,3.90
2023-03-29T16:47:19.308Z,4.20
2023-03-29T16:49:50.142Z,2.40
2023-03-29T16:52:21.324Z,2.10
2023-03-29T16:54:53.258Z,3.90
2023-03-29T16:57:25.221Z,5.20
2023-03-29T16:59:57.217Z,2.50
2023-03-29T17:02:28.310Z,5.00
2023-03-29T17:04:59.494Z,3.70
2023-03-29T17:07:30.836Z,4.40
2023-03-29T17:10:04.706Z,5.30
2023-03-29T17:15:05.590Z,3.10
2023-03-29T17:17:37.529Z,4.20
2023-03-29T17:20:12.630Z,2.80
2023-03-29T17:22:44.133Z,2.00
2023-03-29T17:25:15.018Z,3.00
2023-03-29T17:27:47.562Z,3.80
2023-03-29T17:30:19.094Z,2.60
2023-03-29T17:32:50.260Z,2.90
2023-03-29T17:35:21.363Z,2.90
2023-03-29T17:37:52.454Z,4.70
2023-03-29T17:40:23.699Z,3.10
2023-03-29T17:42:54.668Z,1.70
2023-03-29T17:45:25.837Z,2.80
2023-03-29T17:47:56.896Z,3.20
2023-03-29T17:50:28.108Z,3.10
2023-03-29T17:52:59.171Z,2.20
2023-03-29T17:55:30.065Z,2.20
2023-03-29T17:58:00.876Z,2.50
2023-03-29T18:00:31.739Z,3.50
2023-03-29T18:03:03.134Z,2.80
2023-03-29T18:05:35.357Z,5.10
2023-03-29T18:08:06.878Z,2.60
2023-03-29T18:10:38.210Z,1.80
2023-03-29T18:13:11.367Z,7.70
2023-03-29T18:15:42.262Z,6.40
2023-03-29T18:18:13.213Z,13.30
2023-03-29T18:20:45.420Z,5.00
2023-03-29T18:23:16.326Z,44.30
2023-03-29T18:25:47.185Z,51.80
2023-03-29T18:28:18.445Z,55.20
2023-03-29T18:30:53.312Z,56.40
2023-03-29T18:33:24.500Z,43.10
2023-03-29T18:35:55.636Z,40.00
2023-03-29T18:38:27.146Z,44.20
2023-03-29T18:40:58.285Z,44.80
2023-03-29T18:43:29.193Z,41.60
2023-03-29T18:46:00.686Z,43.40
2023-03-29T18:48:31.804Z,51.10
2023-03-29T18:51:05.109Z,18.80
2023-03-29T18:53:37.203Z,26.20
2023-03-29T18:56:08.794Z,25.40
2023-03-29T18:58:39.668Z,29.20
2023-03-29T19:01:12.909Z,27.50
2023-03-29T19:03:44.088Z,24.80
2023-03-29T19:06:15.461Z,25.30
2023-03-29T19:08:46.421Z,24.20
2023-03-29T19:11:17.357Z,24.10
2023-03-29T19:13:50.711Z,23.50
2023-03-29T19:16:21.935Z,20.10
2023-03-29T19:18:53.142Z,21.10
2023-03-29T19:21:24.313Z,25.00
2023-03-29T19:23:55.533Z,21.10
2023-03-29T19:26:26.682Z,24.20
2023-03-29T19:28:57.736Z,20.60
2023-03-29T19:31:29.013Z,25.80
2023-03-29T19:33:59.848Z,25.20
2023-03-29T19:36:31.182Z,23.00
2023-03-29T19:39:02.010Z,25.90
2023-03-29T19:41:32.738Z,23.70
2023-03-29T19:44:03.797Z,19.30
2023-03-29T19:46:35.406Z,21.80
2023-03-29T19:49:06.520Z,18.00
2023-03-29T19:51:37.434Z,15.90
2023-03-29T19:54:08.699Z,18.80
2023-03-29T19:56:39.982Z,14.70
2023-03-29T19:59:14.841Z,17.00
2023-03-29T20:01:51.117Z,18.10
2023-03-29T20:04:24.609Z,15.70
2023-03-29T20:06:55.384Z,16.20
2023-03-29T20:09:26.111Z,17.20
2023-03-29T20:11:56.961Z,12.20
2023-03-29T20:14:27.905Z,16.40
2023-03-29T20:16:58.788Z,14.00
2023-03-29T20:19:30.191Z,14.70
2023-03-29T20:22:00.954Z,17.20
2023-03-29T20:24:32.761Z,10.30
2023-03-29T20:27:04.654Z,13.80
2023-03-29T20:29:35.618Z,10.70
2023-03-29T20:32:07.106Z,12.90
2023-03-29T20:34:38.238Z,10.50
2023-03-29T20:37:08.984Z,13.90
2023-03-29T20:39:39.859Z,13.20
2023-03-29T20:42:11.279Z,11.80
2023-03-29T20:44:41.944Z,9.80
2023-03-29T20:47:14.278Z,11.10
2023-03-29T20:49:44.861Z,13.00
2023-03-29T20:52:17.721Z,13.00
2023-03-29T20:54:49.253Z,12.40
2023-03-29T20:57:21.471Z,11.00
2023-03-29T20:59:53.277Z,10.80
2023-03-29T21:02:24.903Z,9.10
2023-03-29T21:05:00.367Z,9.40
2023-03-29T21:07:31.414Z,11.40
2023-03-29T21:10:02.808Z,12.10
2023-03-29T21:12:33.700Z,11.10
2023-03-29T21:15:05.576Z,9.40
2023-03-29T21:17:36.437Z,9.90
2023-03-29T21:20:11.235Z,11.10
2023-03-29T21:22:43.957Z,9.00
2023-03-29T21:25:16.573Z,8.10
2023-03-29T21:27:47.999Z,9.40
2023-03-29T21:30:18.811Z,11.00
2023-03-29T21:32:49.584Z,8.60
2023-03-29T21:35:20.694Z,8.90
2023-03-29T21:37:51.517Z,9.30
2023-03-29T21:40:22.445Z,9.00
2023-03-29T21:42:53.298Z,9.40
2023-03-29T21:45:24.147Z,7.70
2023-03-29T21:47:54.978Z,10.30
2023-03-29T21:50:26.101Z,8.70
2023-03-29T21:52:56.995Z,9.20
2023-03-29T21:55:27.825Z,9.60
2023-03-29T21:57:58.658Z,6.90
2023-03-29T22:00:29.860Z,7.00
2023-03-29T22:03:00.647Z,7.20
2023-03-29T22:05:31.721Z,8.20
2023-03-29T22:08:02.646Z,9.10
2023-03-29T22:10:34.604Z,6.00
2023-03-29T22:13:05.232Z,6.00
2023-03-29T22:15:36.280Z,8.00
2023-03-29T22:18:08.318Z,6.10
2023-03-29T22:20:40.213Z,6.70
2023-03-29T22:23:10.928Z,6.90
2023-03-29T22:25:41.623Z,7.40
2023-03-29T22:28:13.692Z,8.30
2023-03-29T22:30:44.526Z,8.20
2023-03-29T22:33:15.940Z,5.60
2023-03-29T22:35:46.626Z,7.60
2023-03-29T22:38:17.729Z,5.50
2023-03-29T22:40:48.451Z,7.20
2023-03-29T22:43:19.082Z,5.40
2023-03-29T22:45:50.198Z,5.60
2023-03-29T22:48:21.204Z,7.10
2023-03-29T22:50:51.832Z,5.80
2023-03-29T22:53:22.465Z,8.40
2023-03-29T22:55:53.076Z,6.20
2023-03-29T22:58:24.448Z,5.50
2023-03-29T23:00:55.289Z,6.90
2023-03-29T23:03:26.670Z,6.90
2023-03-29T23:05:59.022Z,6.70
2023-03-29T23:08:30.485Z,6.60
2023-03-29T23:11:02.242Z,4.20
2023-03-29T23:13:33.780Z,6.30
2023-03-29T23:16:05.675Z,3.30
2023-03-29T23:18:37.593Z,5.00
2023-03-29T23:21:09.138Z,5.40
2023-03-29T23:23:40.222Z,5.80
2023-03-29T23:26:11.369Z,5.50
2023-03-29T23:28:42.519Z,5.10
2023-03-29T23:31:17.921Z,6.10
2023-03-29T23:33:49.554Z,4.20
2023-03-29T23:36:22.938Z,5.70
2023-03-29T23:38:53.632Z,6.60
2023-03-29T23:41:28.493Z,5.50
2023-03-29T23:44:01.156Z,5.60
2023-03-29T23:46:33.046Z,4.70
2023-03-29T23:49:03.673Z,4.80
2023-03-29T23:51:35.015Z,5.10
2023-03-29T23:54:06.320Z,4.50
2023-03-29T23:56:36.968Z,6.70
2023-03-29T23:59:07.872Z,4.40
